Times Beach, Missouri
Current Conditions -  °F | °C
As of 5:54 PM on Wednesday 28 Jan 2015 (Local Time) from KSUS Reporting Station
Broken Clouds Broken Clouds  
Wind Chill: 50°   Ceiling: 25000
Heat Index: 50°   Visibility: 10mi
Dew Point: 31°   Wind: 9mph
Humidity: 48%   Direction: 160°SSE
Pressure: 29.93"   Gusts: 17mph
Location:  38.5081°N, 90.6523°W
Report Text: KSUS 282354Z 16008G15KT 110V200 10SM BKN250 10/M01 A2993 RMK AO2 SLP140 T01001006 10117 20072 56021
Loading
Personal Weather Stations






























Interactive Weather Map New forecast layout! Learn more

10-Day Weather Forecast

Advertisements
Track Severe Weather on mobile